createdAt,value
2019-04-26T00:00:20.725Z,51.20
2019-04-26T00:02:53.991Z,51.90
2019-04-26T00:05:33.899Z,51.70
2019-04-26T00:07:53.229Z,52.00
2019-04-26T00:10:26.538Z,51.70
2019-04-26T00:12:57.097Z,51.60
2019-04-26T00:15:27.617Z,51.90
2019-04-26T00:17:58.170Z,51.50
2019-04-26T00:20:26.864Z,50.80
2019-04-26T00:22:55.694Z,50.90
2019-04-26T00:25:24.399Z,51.40
2019-04-26T00:27:53.039Z,52.90
2019-04-26T00:30:21.752Z,52.70
2019-04-26T00:32:50.422Z,53.30
2019-04-26T00:35:19.867Z,52.90
2019-04-26T00:37:48.740Z,52.00
2019-04-26T00:40:18.235Z,51.90
2019-04-26T00:42:47.154Z,52.40
2019-04-26T00:45:16.671Z,53.00
2019-04-26T00:47:45.713Z,53.80
2019-04-26T00:50:15.349Z,55.90
2019-04-26T00:52:44.989Z,56.90
2019-04-26T00:55:14.345Z,58.80
2019-04-26T00:57:43.850Z,59.20
2019-04-26T01:00:15.411Z,60.00
2019-04-26T01:02:46.870Z,61.50
2019-04-26T01:05:16.071Z,59.00
2019-04-26T01:07:47.269Z,58.70
2019-04-26T01:10:16.746Z,57.60
2019-04-26T01:12:46.430Z,57.70
2019-04-26T01:15:17.071Z,57.70
2019-04-26T01:17:45.591Z,58.40
2019-04-26T01:20:14.467Z,57.90
2019-04-26T01:22:46.141Z,57.80
2019-04-26T01:25:42.116Z,58.60
2019-04-26T01:28:13.802Z,57.40
2019-04-26T01:30:43.875Z,57.80
2019-04-26T01:33:13.039Z,58.50
2019-04-26T01:35:42.645Z,57.60
2019-04-26T01:38:14.546Z,57.30
2019-04-26T01:40:44.881Z,58.20
2019-04-26T01:43:22.711Z,57.90
2019-04-26T01:46:01.495Z,58.10
2019-04-26T01:48:48.708Z,58.60
2019-04-26T01:51:24.453Z,57.90
2019-04-26T01:53:53.577Z,58.20
2019-04-26T01:56:25.287Z,58.30
2019-04-26T01:58:54.405Z,57.40
2019-04-26T02:01:27.626Z,57.00
2019-04-26T02:03:56.471Z,56.90
2019-04-26T02:06:30.725Z,56.80
2019-04-26T02:08:56.021Z,56.30
2019-04-26T02:11:25.054Z,55.80
2019-04-26T02:13:54.098Z,55.60
2019-04-26T02:16:23.686Z,55.00
2019-04-26T02:18:52.373Z,55.10
2019-04-26T02:21:26.385Z,55.10
2019-04-26T02:24:00.091Z,55.20
2019-04-26T02:26:34.682Z,55.10
2019-04-26T02:29:06.870Z,55.00
2019-04-26T02:31:37.897Z,55.20
2019-04-26T02:34:07.971Z,55.20
2019-04-26T02:36:56.116Z,55.50
2019-04-26T02:39:22.837Z,55.50
2019-04-26T02:41:54.059Z,55.80
2019-04-26T02:44:28.968Z,56.40
2019-04-26T02:47:05.154Z,56.60
2019-04-26T02:49:38.683Z,56.60
2019-04-26T02:52:22.149Z,56.80
2019-04-26T02:55:09.154Z,56.40
2019-04-26T02:57:43.448Z,56.60
2019-04-26T03:00:14.582Z,56.90
2019-04-26T03:02:46.043Z,56.70
2019-04-26T03:05:14.798Z,56.50
2019-04-26T03:07:58.473Z,56.50
2019-04-26T03:10:35.967Z,56.40
2019-04-26T03:13:06.335Z,56.70
2019-04-26T03:15:42.694Z,56.60
2019-04-26T03:18:33.482Z,56.60
2019-04-26T03:21:07.958Z,56.50
2019-04-26T03:23:53.240Z,56.60
2019-04-26T03:26:21.773Z,56.90
2019-04-26T03:28:56.046Z,56.50
2019-04-26T03:31:52.506Z,56.60
2019-04-26T03:34:27.412Z,56.30
2019-04-26T03:37:22.011Z,56.70
2019-04-26T03:40:13.575Z,56.20
2019-04-26T03:42:48.130Z,56.10
2019-04-26T03:45:28.626Z,56.00
2019-04-26T03:48:03.241Z,55.80
2019-04-26T03:50:45.037Z,55.80
2019-04-26T03:53:31.981Z,55.70
2019-04-26T03:56:13.220Z,55.70
2019-04-26T03:59:07.159Z,55.50
2019-04-26T04:01:41.265Z,55.90
2019-04-26T04:04:30.300Z,56.10
2019-04-26T04:07:04.618Z,55.90
2019-04-26T04:09:34.111Z,56.10
2019-04-26T04:12:24.085Z,56.40
2019-04-26T04:14:59.072Z,55.90
2019-04-26T04:17:32.359Z,56.50
2019-04-26T04:20:26.893Z,56.40
2019-04-26T04:23:07.184Z,56.00
2019-04-26T04:25:51.191Z,55.70
2019-04-26T04:28:42.514Z,55.80
2019-04-26T04:31:23.116Z,55.50
2019-04-26T04:33:57.650Z,56.00
2019-04-26T04:36:29.335Z,55.60
2019-04-26T04:39:12.191Z,55.90
2019-04-26T04:41:53.715Z,55.70
2019-04-26T04:45:03.505Z,55.90
2019-04-26T04:48:06.730Z,55.80
2019-04-26T04:50:40.934Z,55.80
2019-04-26T04:53:22.139Z,56.10
2019-04-26T04:56:00.143Z,55.80
2019-04-26T04:58:37.617Z,55.80
2019-04-26T05:01:50.367Z,56.30
2019-04-26T05:04:44.295Z,55.80
2019-04-26T05:07:28.769Z,56.30
2019-04-26T05:10:03.440Z,56.40
2019-04-26T05:12:46.488Z,55.90
2019-04-26T05:15:31.410Z,55.80
2019-04-26T05:18:22.564Z,55.70
2019-04-26T05:20:55.408Z,55.40
2019-04-26T05:23:24.814Z,55.90
2019-04-26T05:26:18.099Z,55.70
2019-04-26T05:29:25.006Z,55.40
2019-04-26T05:32:14.704Z,55.00
2019-04-26T05:34:56.978Z,54.60
2019-04-26T05:37:49.268Z,54.10
2019-04-26T05:40:37.405Z,53.90
2019-04-26T05:43:25.766Z,54.00
2019-04-26T05:46:16.977Z,53.30
2019-04-26T05:49:28.120Z,53.30
2019-04-26T05:52:39.769Z,53.30
2019-04-26T05:55:49.574Z,53.40
2019-04-26T05:58:41.748Z,53.30
2019-04-26T06:01:23.936Z,53.30
2019-04-26T06:04:25.513Z,53.20
2019-04-26T06:07:01.715Z,52.50
2019-04-26T06:09:46.842Z,52.30
2019-04-26T06:12:28.966Z,52.40
2019-04-26T06:15:08.077Z,51.50
2019-04-26T06:17:59.745Z,51.70
2019-04-26T06:20:49.574Z,51.10
2019-04-26T06:23:45.644Z,51.10
2019-04-26T06:26:41.471Z,50.90
2019-04-26T06:29:42.341Z,50.80
2019-04-26T06:32:32.209Z,50.80
2019-04-26T06:35:20.408Z,50.90
2019-04-26T06:38:11.610Z,50.40
2019-04-26T06:40:49.150Z,50.30
2019-04-26T06:43:22.478Z,50.10
2019-04-26T06:46:10.629Z,50.20
2019-04-26T06:49:14.334Z,49.70
2019-04-26T06:51:48.782Z,47.30
2019-04-26T06:54:35.544Z,44.60
2019-04-26T06:57:31.323Z,43.90
2019-04-26T07:00:16.703Z,40.70
2019-04-26T07:03:10.002Z,39.80
2019-04-26T07:05:42.374Z,41.10
2019-04-26T07:08:32.303Z,40.70
2019-04-26T07:11:43.998Z,37.30
2019-04-26T07:14:19.151Z,35.10
2019-04-26T07:17:08.888Z,35.90
2019-04-26T07:20:04.397Z,36.90
2019-04-26T07:22:50.323Z,34.00
2019-04-26T07:25:44.747Z,36.00
2019-04-26T07:28:47.906Z,38.60
2019-04-26T07:31:21.996Z,36.50
2019-04-26T07:34:16.167Z,35.80
2019-04-26T07:37:11.392Z,34.50
2019-04-26T07:39:53.259Z,35.20
2019-04-26T07:42:35.502Z,35.40
2019-04-26T07:45:34.304Z,34.70
2019-04-26T07:48:18.371Z,36.20
2019-04-26T07:51:11.610Z,35.40
2019-04-26T07:53:41.019Z,35.90
2019-04-26T07:56:19.151Z,33.60
2019-04-26T07:59:19.863Z,32.80
2019-04-26T08:02:02.403Z,34.20
2019-04-26T08:04:35.058Z,33.90
2019-04-26T08:07:15.747Z,33.60
2019-04-26T08:09:59.191Z,35.00
2019-04-26T08:12:20.715Z,34.90
2019-04-26T08:15:09.090Z,35.10
2019-04-26T08:17:54.070Z,33.40
2019-04-26T08:20:31.954Z,31.30
2019-04-26T08:23:08.650Z,31.90
2019-04-26T08:25:36.907Z,32.10
2019-04-26T08:28:08.441Z,29.70
2019-04-26T08:30:44.834Z,30.20
2019-04-26T08:33:18.153Z,31.30
2019-04-26T08:35:53.087Z,30.50
2019-04-26T08:38:22.828Z,31.60
2019-04-26T08:40:52.820Z,29.90
2019-04-26T08:43:27.340Z,30.50
2019-04-26T08:46:10.422Z,30.90
2019-04-26T08:48:58.147Z,31.10
2019-04-26T08:51:27.182Z,32.30
2019-04-26T08:53:57.597Z,31.40
2019-04-26T08:56:47.405Z,30.60
2019-04-26T08:59:19.084Z,30.60
2019-04-26T09:01:54.833Z,30.30
2019-04-26T09:04:44.208Z,29.60
2019-04-26T09:07:17.553Z,30.60
2019-04-26T09:09:57.241Z,32.10
2019-04-26T09:12:23.346Z,29.60
2019-04-26T09:14:55.453Z,29.50
2019-04-26T09:17:27.748Z,29.50
2019-04-26T09:19:54.885Z,30.30
2019-04-26T09:22:30.968Z,29.70
2019-04-26T09:25:04.559Z,29.80
2019-04-26T09:27:44.125Z,30.60
2019-04-26T09:30:33.983Z,29.70
2019-04-26T09:33:05.076Z,29.70
2019-04-26T09:35:41.251Z,31.30
2019-04-26T09:38:09.954Z,29.70
2019-04-26T09:40:38.719Z,29.70
2019-04-26T09:43:16.649Z,30.00
2019-04-26T09:45:50.015Z,29.20
2019-04-26T09:48:23.081Z,28.30
2019-04-26T09:50:53.473Z,29.30
2019-04-26T09:53:22.098Z,31.10
2019-04-26T09:55:50.718Z,30.30
2019-04-26T09:58:19.377Z,27.80
2019-04-26T10:00:50.065Z,27.80
2019-04-26T10:03:18.650Z,26.50
2019-04-26T10:05:47.283Z,25.40
2019-04-26T10:08:15.961Z,27.40
2019-04-26T10:10:44.712Z,27.30
2019-04-26T10:13:15.241Z,26.90
2019-04-26T10:15:51.646Z,27.30
2019-04-26T10:18:24.433Z,28.30
2019-04-26T10:20:51.942Z,30.70
2019-04-26T10:23:20.615Z,33.10
2019-04-26T10:25:52.060Z,32.50
2019-04-26T10:28:19.608Z,29.80
2019-04-26T10:30:48.682Z,29.80
2019-04-26T10:33:17.326Z,31.10
2019-04-26T10:35:46.350Z,31.70
2019-04-26T10:38:15.022Z,31.30
2019-04-26T10:40:43.615Z,28.80
2019-04-26T10:43:12.306Z,28.00
2019-04-26T10:45:41.136Z,28.90
2019-04-26T10:48:13.944Z,30.00
2019-04-26T10:50:40.114Z,31.30
2019-04-26T10:53:13.606Z,30.80
2019-04-26T10:55:46.418Z,30.90
2019-04-26T10:58:20.559Z,30.00
2019-04-26T11:00:52.734Z,31.30
2019-04-26T11:03:21.295Z,32.70
2019-04-26T11:05:53.682Z,33.00
2019-04-26T11:08:20.514Z,30.00
2019-04-26T11:10:49.440Z,31.30
2019-04-26T11:13:18.253Z,32.40
2019-04-26T11:15:47.367Z,32.80
2019-04-26T11:18:19.826Z,34.20
2019-04-26T11:20:46.714Z,33.50
2019-04-26T11:23:15.309Z,33.70
2019-04-26T11:25:44.046Z,31.40
2019-04-26T11:28:12.650Z,30.80
2019-04-26T11:30:41.527Z,29.50
2019-04-26T11:33:11.058Z,29.70
2019-04-26T11:35:40.520Z,29.60
2019-04-26T11:38:09.170Z,29.60
2019-04-26T11:40:38.030Z,29.30
2019-04-26T11:43:06.670Z,30.00
2019-04-26T11:45:35.333Z,29.60
2019-04-26T11:48:04.067Z,31.00
2019-04-26T11:50:32.876Z,31.40
2019-04-26T11:53:01.472Z,32.10
2019-04-26T11:55:31.467Z,32.70
2019-04-26T11:58:00.456Z,33.10
2019-04-26T12:00:30.706Z,33.30
2019-04-26T12:02:59.386Z,33.30
2019-04-26T12:05:35.247Z,33.40
2019-04-26T12:08:05.534Z,34.40
2019-04-26T12:10:34.202Z,36.30
2019-04-26T12:13:05.909Z,35.90
2019-04-26T12:15:33.129Z,36.60
2019-04-26T12:18:05.423Z,41.60
2019-04-26T12:20:32.651Z,40.90
2019-04-26T12:23:01.318Z,42.60
2019-04-26T12:25:31.161Z,43.60
2019-04-26T12:28:01.941Z,45.50
2019-04-26T12:30:30.130Z,44.70
2019-04-26T12:32:58.854Z,42.40
2019-04-26T12:35:29.918Z,41.90
2019-04-26T12:37:57.930Z,39.50
2019-04-26T12:40:26.679Z,41.40
2019-04-26T12:42:55.346Z,41.20
2019-04-26T12:45:31.814Z,44.70
2019-04-26T12:48:02.103Z,45.90
2019-04-26T12:50:36.528Z,44.20
2019-04-26T12:53:01.025Z,45.40
2019-04-26T12:55:29.798Z,44.50
2019-04-26T12:57:58.438Z,49.50
2019-04-26T13:00:33.062Z,52.60
2019-04-26T13:03:01.106Z,50.30
2019-04-26T13:05:29.702Z,47.30
2019-04-26T13:07:58.341Z,47.00
2019-04-26T13:10:45.201Z,49.10
2019-04-26T13:13:15.546Z,56.10
2019-04-26T13:15:56.948Z,52.80
2019-04-26T13:18:25.646Z,56.30
2019-04-26T13:20:54.342Z,60.00
2019-04-26T13:23:25.451Z,59.50
2019-04-26T13:25:55.490Z,59.80
2019-04-26T13:28:23.550Z,59.40
2019-04-26T13:30:52.267Z,60.00
2019-04-26T13:33:23.145Z,60.80
2019-04-26T13:36:02.855Z,58.50
2019-04-26T13:38:21.572Z,56.80
2019-04-26T13:40:50.381Z,56.20
2019-04-26T13:43:22.793Z,56.20
2019-04-26T13:45:51.061Z,55.80
2019-04-26T13:48:24.013Z,52.50
2019-04-26T13:50:53.490Z,50.30
2019-04-26T13:53:22.187Z,49.80
2019-04-26T13:55:50.851Z,49.80
2019-04-26T13:58:20.899Z,53.50
2019-04-26T14:00:49.798Z,50.90
2019-04-26T14:03:18.420Z,47.10
2019-04-26T14:05:47.031Z,47.30
2019-04-26T14:08:17.642Z,46.40
2019-04-26T14:10:49.781Z,46.70
2019-04-26T14:13:16.277Z,46.80
2019-04-26T14:15:49.286Z,46.90
2019-04-26T14:18:15.450Z,46.50
2019-04-26T14:20:44.151Z,47.20
2019-04-26T14:23:33.451Z,49.20
2019-04-26T14:26:11.290Z,48.60
2019-04-26T14:28:42.009Z,49.20
2019-04-26T14:31:12.151Z,49.60
2019-04-26T14:33:40.706Z,51.00
2019-04-26T14:36:17.473Z,51.60
2019-04-26T14:38:41.260Z,51.70
2019-04-26T14:41:13.049Z,51.60
2019-04-26T14:43:41.517Z,49.40
2019-04-26T14:46:14.106Z,49.70
2019-04-26T14:48:44.807Z,51.60
2019-04-26T14:51:12.347Z,50.00
2019-04-26T14:53:41.177Z,50.10
2019-04-26T14:56:10.065Z,50.20
2019-04-26T14:58:38.778Z,49.90
2019-04-26T15:01:21.371Z,50.70
2019-04-26T15:04:07.606Z,51.60
2019-04-26T15:06:37.847Z,52.30
2019-04-26T15:09:17.040Z,54.20
2019-04-26T15:11:37.132Z,53.80
2019-04-26T15:14:05.884Z,54.80
2019-04-26T15:16:34.485Z,53.50
2019-04-26T15:19:06.344Z,54.50
2019-04-26T15:21:34.389Z,53.20
2019-04-26T15:24:04.973Z,53.10
2019-04-26T15:26:33.438Z,52.90
2019-04-26T15:29:02.515Z,53.70
2019-04-26T15:31:33.098Z,53.60
2019-04-26T15:34:03.228Z,55.00
2019-04-26T15:36:32.182Z,55.20
2019-04-26T15:39:02.778Z,54.80
2019-04-26T15:41:51.245Z,54.40
2019-04-26T15:44:28.367Z,54.90
2019-04-26T15:47:05.811Z,55.00
2019-04-26T15:49:42.922Z,54.60
2019-04-26T15:52:11.732Z,54.00
2019-04-26T15:54:40.397Z,53.60
2019-04-26T15:57:09.100Z,53.40
2019-04-26T15:59:37.701Z,46.30
2019-04-26T16:02:06.612Z,48.30
2019-04-26T16:04:35.386Z,56.80
2019-04-26T16:07:04.335Z,56.00
2019-04-26T16:09:33.069Z,55.20
2019-04-26T16:12:03.636Z,53.20
2019-04-26T16:14:36.671Z,53.20
2019-04-26T16:17:06.250Z,51.50
2019-04-26T16:19:32.804Z,49.50
2019-04-26T16:22:02.863Z,49.90
2019-04-26T16:24:34.175Z,46.10
2019-04-26T16:27:02.716Z,46.70
2019-04-26T16:29:33.250Z,47.80
2019-04-26T16:34:52.842Z,50.80
2019-04-26T16:37:23.557Z,49.30
2019-04-26T16:39:51.525Z,50.80
2019-04-26T16:42:20.229Z,51.50
2019-04-26T16:44:48.798Z,50.60
2019-04-26T16:47:17.626Z,52.90
2019-04-26T16:49:46.718Z,51.00
2019-04-26T16:52:15.524Z,51.80
2019-04-26T16:54:44.095Z,51.50
2019-04-26T16:57:12.996Z,51.60
2019-04-26T16:59:47.689Z,51.20
2019-04-26T17:02:15.917Z,53.50
2019-04-26T17:04:43.749Z,53.30
2019-04-26T17:07:13.403Z,54.90
2019-04-26T17:09:37.220Z,48.90
2019-04-26T17:09:55.776Z,54.70
2019-04-26T17:12:15.005Z,53.90
2019-04-26T17:14:47.734Z,53.70
2019-04-26T17:17:14.217Z,55.80
2019-04-26T17:19:43.313Z,55.80
2019-04-26T17:22:41.848Z,56.20
2019-04-26T17:25:24.344Z,56.50
2019-04-26T17:27:48.498Z,56.80
2019-04-26T17:30:18.932Z,58.70
2019-04-26T17:32:51.491Z,58.10
2019-04-26T17:35:18.013Z,57.90
2019-04-26T17:37:46.851Z,59.20
2019-04-26T17:40:15.522Z,58.40
2019-04-26T17:42:44.113Z,58.30
2019-04-26T17:45:12.951Z,59.40
2019-04-26T17:47:42.426Z,58.30
2019-04-26T17:50:11.701Z,59.10
2019-04-26T17:52:41.215Z,59.50
2019-04-26T17:55:11.916Z,59.80
2019-04-26T17:57:42.340Z,58.80
2019-04-26T18:00:15.481Z,59.00
2019-04-26T18:02:47.784Z,59.20
2019-04-26T18:05:13.103Z,57.30
2019-04-26T18:07:50.252Z,56.90
2019-04-26T18:10:12.427Z,57.10
2019-04-26T18:12:42.728Z,57.10
2019-04-26T18:15:16.407Z,56.50
2019-04-26T18:17:44.207Z,57.30
2019-04-26T18:20:23.746Z,56.80
2019-04-26T18:22:54.032Z,56.80
2019-04-26T18:25:23.425Z,56.60
2019-04-26T18:27:53.509Z,57.70
2019-04-26T18:30:23.663Z,57.70
2019-04-26T18:32:52.420Z,58.10
2019-04-26T18:35:21.153Z,57.90
2019-04-26T18:37:49.758Z,57.90
2019-04-26T18:40:20.616Z,58.40
2019-04-26T18:42:48.652Z,59.30
2019-04-26T18:45:25.902Z,58.70
2019-04-26T18:47:47.749Z,58.80
2019-04-26T18:50:16.635Z,59.10
2019-04-26T18:52:49.698Z,59.30
2019-04-26T18:55:29.161Z,58.80
2019-04-26T18:57:59.438Z,59.40
2019-04-26T19:00:26.466Z,59.50
2019-04-26T19:02:55.565Z,59.60
2019-04-26T19:05:29.715Z,59.70
2019-04-26T19:07:54.564Z,59.40
2019-04-26T19:10:25.730Z,60.30
2019-04-26T19:12:56.403Z,60.40
2019-04-26T19:15:33.628Z,60.80
2019-04-26T19:18:13.283Z,61.30
2019-04-26T19:20:43.787Z,60.90
2019-04-26T19:23:12.546Z,61.50
2019-04-26T19:25:41.489Z,61.30
2019-04-26T19:28:11.952Z,61.70
2019-04-26T19:30:49.129Z,62.20
2019-04-26T19:33:16.566Z,62.20
2019-04-26T19:35:44.002Z,61.40
2019-04-26T19:38:14.648Z,61.80
2019-04-26T19:40:46.111Z,62.10
2019-04-26T19:43:12.686Z,62.20
2019-04-26T19:45:49.813Z,61.80
2019-04-26T19:48:20.688Z,62.10
2019-04-26T19:50:52.598Z,62.00
2019-04-26T19:53:25.991Z,62.20
2019-04-26T19:56:08.267Z,62.50
2019-04-26T19:58:42.141Z,62.70
2019-04-26T20:01:12.240Z,62.80
2019-04-26T20:03:43.156Z,63.30
2019-04-26T20:06:14.125Z,63.50
2019-04-26T20:08:45.786Z,63.50
2019-04-26T20:11:14.321Z,63.80
2019-04-26T20:13:42.587Z,63.70
2019-04-26T20:16:11.507Z,64.30
2019-04-26T20:18:41.673Z,64.20
2019-04-26T20:21:15.225Z,64.80
2019-04-26T20:23:45.800Z,64.80
2019-04-26T20:26:12.038Z,64.90
2019-04-26T20:28:42.291Z,65.40
2019-04-26T20:31:12.718Z,65.40
2019-04-26T20:33:42.401Z,66.00
2019-04-26T20:36:11.167Z,65.90
2019-04-26T20:38:43.648Z,65.80
2019-04-26T20:41:13.172Z,66.10
2019-04-26T20:43:44.334Z,66.60
2019-04-26T20:46:15.141Z,67.20
2019-04-26T20:48:42.638Z,67.00
2019-04-26T20:51:12.047Z,67.20
2019-04-26T20:53:43.475Z,67.70
2019-04-26T20:56:16.632Z,68.20
2019-04-26T20:58:43.229Z,68.60
2019-04-26T21:01:14.144Z,68.70
2019-04-26T21:03:46.026Z,69.20
2019-04-26T21:06:13.565Z,69.20
2019-04-26T21:08:42.528Z,69.20
2019-04-26T21:11:13.600Z,69.30
2019-04-26T21:13:41.803Z,68.90
2019-04-26T21:16:14.983Z,69.30
2019-04-26T21:18:44.144Z,69.20
2019-04-26T21:21:12.024Z,69.30
2019-04-26T21:23:42.267Z,70.60
2019-04-26T21:26:29.261Z,70.00
2019-04-26T21:29:13.434Z,70.40
2019-04-26T21:31:47.133Z,70.60
2019-04-26T21:34:26.590Z,70.80
2019-04-26T21:37:06.113Z,70.60
2019-04-26T21:39:39.483Z,70.90
2019-04-26T21:42:17.240Z,71.00
2019-04-26T21:44:48.104Z,71.10
2019-04-26T21:47:14.335Z,71.50
2019-04-26T21:49:43.030Z,71.10
2019-04-26T21:52:13.524Z,71.50
2019-04-26T21:54:43.165Z,71.60
2019-04-26T21:57:11.918Z,71.60
2019-04-26T21:59:42.238Z,71.80
2019-04-26T22:02:10.756Z,72.10
2019-04-26T22:04:39.426Z,72.30
2019-04-26T22:07:08.598Z,72.50
2019-04-26T22:09:57.059Z,72.50
2019-04-26T22:12:27.258Z,73.90
2019-04-26T22:15:14.815Z,72.80
2019-04-26T22:17:45.005Z,73.10
2019-04-26T22:20:17.754Z,73.20
2019-04-26T22:22:52.526Z,73.40
2019-04-26T22:25:23.053Z,74.10
2019-04-26T22:27:57.356Z,73.90
2019-04-26T22:30:28.496Z,74.30
2019-04-26T22:32:58.086Z,74.30
2019-04-26T22:35:24.337Z,74.60
2019-04-26T22:37:53.728Z,74.70
2019-04-26T22:40:23.336Z,74.70
2019-04-26T22:42:54.379Z,74.70
2019-04-26T22:45:31.222Z,74.70
2019-04-26T22:48:23.183Z,75.30
2019-04-26T22:50:52.081Z,75.60
2019-04-26T22:53:21.447Z,75.80
2019-04-26T22:55:49.250Z,75.70
2019-04-26T22:58:20.474Z,75.90
2019-04-26T23:00:48.532Z,76.10
2019-04-26T23:03:17.418Z,76.20
2019-04-26T23:05:46.092Z,76.20
2019-04-26T23:08:14.937Z,76.40
2019-04-26T23:10:48.286Z,77.20
2019-04-26T23:13:33.995Z,76.80
2019-04-26T23:16:11.223Z,76.40
2019-04-26T23:18:46.245Z,77.10
2019-04-26T23:21:25.054Z,76.90
2019-04-26T23:23:53.970Z,77.00
2019-04-26T23:26:23.110Z,77.20
2019-04-26T23:28:53.418Z,77.70
2019-04-26T23:31:23.738Z,77.10
2019-04-26T23:33:53.870Z,77.60
2019-04-26T23:36:24.125Z,77.80
2019-04-26T23:38:53.205Z,78.10
2019-04-26T23:41:23.568Z,77.80
2019-04-26T23:43:56.837Z,77.50
2019-04-26T23:46:25.702Z,77.30
2019-04-26T23:48:53.830Z,77.40
2019-04-26T23:51:23.809Z,77.80
2019-04-26T23:53:54.986Z,78.30
2019-04-26T23:56:25.300Z,78.20
2019-04-26T23:58:53.373Z,78.70
